Vestborg — E5U2070 — position and weather

sailwx.info

Track history (hours):
 
Tides and Currents Weather Stations Pressure Air Temp Water Temp Dewpoint Dewpoint Depression Visibility Wind Speed Wind Dir Waves Ship Positions

Vestborg

Last reported at 2015-May-23 05:24 UTC. Time now 2015-May-23 13:27 UTC.
Position N 63°45' E 009°32'.

Length 66 m; draft 5.6 m.

Type: Cargo ship. MMSI: 518120000.

Date/timePositionNaut miles runAvg speedWind from/ knotsBaromVisibWave heightAir tempDewpointWater temp
2015-May-23 05:24N 63°45' E 009°32'8 9.4
2015-May-23 04:33N 63°37' E 009°28'  
2015-May-19 13:17N 59°17' E 005°20'6 7.5
2015-May-19 12:33N 59°14' E 005°28'9 8.8
2015-May-19 11:33N 59°09' E 005°42'9 8.8
2015-May-19 10:33N 59°02' E 005°52'8 8.5
2015-May-19 09:33N 58°55' E 006°02'5 1.5
2015-May-19 06:24N 58°52' E 006°09'0 0.0
2015-May-19 05:30N 58°52' E 006°09'0 0.0
2015-May-19 04:33N 58°52' E 006°09'0 0.0
2015-May-19 03:03N 58°52' E 006°09'0 0.0
2015-May-19 02:30N 58°52' E 006°09'0 0.0
2015-May-19 01:30N 58°52' E 006°09'0 0.0
2015-May-19 00:30N 58°52' E 006°09'2 1.8
2015-May-18 23:33N 58°53' E 006°06'9 8.6
2015-May-18 22:33N 58°59' E 005°54'9 8.5
2015-May-18 21:34N 59°02' E 005°39'8 8.3
2015-May-18 20:33N 58°54' E 005°32'1010.5
2015-May-18 19:34N 58°44' E 005°27'1211.9
2015-May-18 18:32N 58°33' E 005°36'1111.0
2015-May-18 17:33N 58°25' E 005°50'1111.2
2015-May-18 16:33N 58°17' E 006°06'1111.0
2015-May-18 15:33N 58°09' E 006°20'11510.0
2015-May-18 04:05N 56°36' E 008°25'5 8.0
2015-May-18 03:23N 56°35' E 008°35'111 3.6
2015-May-16 20:14N 58°02' E 006°26'5 7.5
2015-May-16 19:33N 58°06' E 006°21'7 6.9
2015-May-16 18:33N 58°12' E 006°16'6 5.6
2015-May-16 17:34N 58°18' E 006°15'2 1.8
2015-May-16 16:31N 58°20' E 006°16'0 0.0
2015-May-16 15:32N 58°20' E 006°16'0 0.0
2015-May-16 14:33N 58°20' E 006°16'0 0.0
2015-May-16 13:33N 58°20' E 006°16'7 6.7
2015-May-16 12:33N 58°21' E 006°03'9 9.3
2015-May-16 11:33N 58°26' E 005°48'1110.2
2015-May-16 10:31N 58°34' E 005°35'1110.9
2015-May-16 09:33N 58°44' E 005°26'1010.4
2015-May-16 08:33N 58°54' E 005°22'9 8.9
2015-May-16 07:34N 59°03' E 005°20'8 7.8
2015-May-16 06:33N 59°11' E 005°20'9 8.8
2015-May-16 05:33N 59°20' E 005°19'11 0.4
2015-May-14 23:20N 59°30' E 005°13'6 8.0
2015-May-14 22:32N 59°24' E 005°17'8 8.7
2015-May-14 21:33N 59°15' E 005°21'8 8.1
2015-May-14 20:33N 59°11' E 005°34'9 8.9
2015-May-14 19:33N 59°06' E 005°49'17 8.3
2015-May-14 17:27N 58°52' E 006°08'0 0.3
2015-May-14 16:15N 58°52' E 006°09'1 0.2
2015-May-14 13:29N 58°52' E 006°08'11 9.9
2015-May-14 12:21N 58°60' E 005°52'8 9.8
2015-May-14 11:32N 59°07' E 005°47'9 9.6
2015-May-14 10:33N 59°12' E 005°30'12 8.9
2015-May-14 09:14N 59°22' E 005°18'7 9.5
2015-May-14 08:30N 59°28' E 005°13'  
Track history (hours):
 
Tides and Currents Weather Stations Pressure Air Temp Water Temp Dewpoint Dewpoint Depression Visibility Wind Speed Wind Dir Waves Ship Positions

Vestborg

Last reported at 2015-May-23 05:24 UTC. Time now 2015-May-23 13:27 UTC.
Position N 63°45' E 009°32'.

Length 66 m; draft 5.6 m.

Type: Cargo ship. MMSI: 518120000.

Date/timePositionNaut miles runAvg speedWind from/ knotsBaromVisibWave heightAir tempDewpointWater temp
2015-May-23 05:24N 63°45' E 009°32'8 9.4
2015-May-23 04:33N 63°37' E 009°28'  
2015-May-19 13:17N 59°17' E 005°20'6 7.5
2015-May-19 12:33N 59°14' E 005°28'9 8.8
2015-May-19 11:33N 59°09' E 005°42'9 8.8
2015-May-19 10:33N 59°02' E 005°52'8 8.5
2015-May-19 09:33N 58°55' E 006°02'5 1.5
2015-May-19 06:24N 58°52' E 006°09'0 0.0
2015-May-19 05:30N 58°52' E 006°09'0 0.0
2015-May-19 04:33N 58°52' E 006°09'0 0.0
2015-May-19 03:03N 58°52' E 006°09'0 0.0
2015-May-19 02:30N 58°52' E 006°09'0 0.0
2015-May-19 01:30N 58°52' E 006°09'0 0.0
2015-May-19 00:30N 58°52' E 006°09'2 1.8
2015-May-18 23:33N 58°53' E 006°06'9 8.6
2015-May-18 22:33N 58°59' E 005°54'9 8.5
2015-May-18 21:34N 59°02' E 005°39'8 8.3
2015-May-18 20:33N 58°54' E 005°32'1010.5
2015-May-18 19:34N 58°44' E 005°27'1211.9
2015-May-18 18:32N 58°33' E 005°36'1111.0
2015-May-18 17:33N 58°25' E 005°50'1111.2
2015-May-18 16:33N 58°17' E 006°06'1111.0
2015-May-18 15:33N 58°09' E 006°20'11510.0
2015-May-18 04:05N 56°36' E 008°25'5 8.0
2015-May-18 03:23N 56°35' E 008°35'111 3.6
2015-May-16 20:14N 58°02' E 006°26'5 7.5
2015-May-16 19:33N 58°06' E 006°21'7 6.9
2015-May-16 18:33N 58°12' E 006°16'6 5.6
2015-May-16 17:34N 58°18' E 006°15'2 1.8
2015-May-16 16:31N 58°20' E 006°16'0 0.0
2015-May-16 15:32N 58°20' E 006°16'0 0.0
2015-May-16 14:33N 58°20' E 006°16'0 0.0
2015-May-16 13:33N 58°20' E 006°16'7 6.7
2015-May-16 12:33N 58°21' E 006°03'9 9.3
2015-May-16 11:33N 58°26' E 005°48'1110.2
2015-May-16 10:31N 58°34' E 005°35'1110.9
2015-May-16 09:33N 58°44' E 005°26'1010.4
2015-May-16 08:33N 58°54' E 005°22'9 8.9
2015-May-16 07:34N 59°03' E 005°20'8 7.8
2015-May-16 06:33N 59°11' E 005°20'9 8.8
2015-May-16 05:33N 59°20' E 005°19'11 0.4
2015-May-14 23:20N 59°30' E 005°13'6 8.0
2015-May-14 22:32N 59°24' E 005°17'8 8.7
2015-May-14 21:33N 59°15' E 005°21'8 8.1
2015-May-14 20:33N 59°11' E 005°34'9 8.9
2015-May-14 19:33N 59°06' E 005°49'17 8.3
2015-May-14 17:27N 58°52' E 006°08'0 0.3
2015-May-14 16:15N 58°52' E 006°09'1 0.2
2015-May-14 13:29N 58°52' E 006°08'11 9.9
2015-May-14 12:21N 58°60' E 005°52'8 9.8
2015-May-14 11:32N 59°07' E 005°47'9 9.6
2015-May-14 10:33N 59°12' E 005°30'12 8.9
2015-May-14 09:14N 59°22' E 005°18'7 9.5
2015-May-14 08:30N 59°28' E 005°13'  

Dump ship's entire track history